createdAt,value
2023-04-06T05:01:12.129Z,500.00
2023-04-06T05:02:12.343Z,500.00
2023-04-06T05:03:12.223Z,500.00
2023-04-06T05:04:12.226Z,500.00
2023-04-06T05:05:12.271Z,500.00
2023-04-06T05:06:13.531Z,500.00
2023-04-06T05:07:12.274Z,400.00
2023-04-06T05:08:12.351Z,400.00
2023-04-06T05:09:12.356Z,400.00
2023-04-06T05:10:12.388Z,400.00
2023-04-06T05:11:12.367Z,400.00
2023-04-06T05:12:12.377Z,400.00
2023-04-06T05:13:12.446Z,400.00
2023-04-06T05:14:12.469Z,400.00
2023-04-06T05:15:12.547Z,400.00
2023-04-06T05:16:12.650Z,400.00
2023-04-06T05:17:12.620Z,400.00
2023-04-06T05:18:12.694Z,400.00
2023-04-06T05:19:12.714Z,400.00
2023-04-06T05:20:12.796Z,400.00
2023-04-06T05:21:12.858Z,400.00
2023-04-06T05:22:12.871Z,400.00
2023-04-06T05:23:12.907Z,400.00
2023-04-06T05:24:12.975Z,400.00
2023-04-06T05:25:13.042Z,400.00
2023-04-06T05:26:13.284Z,400.00
2023-04-06T05:27:13.145Z,413.00
2023-04-06T05:28:13.221Z,459.00
2023-04-06T05:29:13.286Z,498.00
2023-04-06T05:30:13.334Z,506.00
2023-04-06T05:31:13.393Z,506.00
2023-04-06T05:32:13.423Z,505.00
2023-04-06T05:33:13.493Z,502.00
2023-04-06T05:34:13.568Z,503.00
2023-04-06T05:35:13.613Z,502.00
2023-04-06T05:36:15.156Z,502.00
2023-04-06T05:37:13.705Z,500.00
2023-04-06T05:38:13.750Z,505.00
2023-04-06T05:39:13.811Z,500.00
2023-04-06T05:40:13.916Z,501.00
2023-04-06T05:41:13.935Z,502.00
2023-04-06T05:42:13.984Z,500.00
2023-04-06T05:43:14.055Z,502.00
2023-04-06T05:44:14.112Z,500.00
2023-04-06T05:45:14.207Z,508.00
2023-04-06T05:46:14.253Z,507.00
2023-04-06T05:47:14.269Z,501.00
2023-04-06T05:48:14.391Z,505.00
2023-04-06T05:49:14.366Z,505.00
2023-04-06T05:50:14.398Z,504.00
2023-04-06T05:51:14.470Z,503.00
2023-04-06T05:52:14.530Z,500.00
2023-04-06T05:53:14.588Z,500.00
2023-04-06T05:54:14.641Z,501.00
2023-04-06T05:55:14.708Z,506.00
2023-04-06T05:56:14.768Z,507.00
2023-04-06T05:57:14.792Z,503.00
2023-04-06T05:58:14.859Z,504.00
2023-04-06T05:59:14.941Z,505.00
2023-04-06T06:00:15.026Z,505.00
2023-04-06T06:01:14.997Z,510.00
2023-04-06T06:02:15.157Z,503.00
2023-04-06T06:03:15.152Z,504.00
2023-04-06T06:04:15.185Z,506.00
2023-04-06T06:05:15.323Z,507.00
2023-04-06T06:06:15.300Z,505.00
2023-04-06T06:07:15.338Z,500.00
2023-04-06T06:08:15.400Z,502.00
2023-04-06T06:09:15.509Z,508.00
2023-04-06T06:10:15.531Z,503.00
2023-04-06T06:11:15.608Z,512.00
2023-04-06T06:12:15.660Z,510.00
2023-04-06T06:13:15.798Z,503.00
2023-04-06T06:14:15.772Z,503.00
2023-04-06T06:15:15.832Z,508.00
2023-04-06T06:16:15.974Z,505.00
2023-04-06T06:17:15.973Z,503.00
2023-04-06T06:18:16.029Z,504.00
2023-04-06T06:19:16.087Z,503.00
2023-04-06T06:20:16.292Z,505.00
2023-04-06T06:21:16.202Z,500.00
2023-04-06T06:22:16.285Z,504.00
2023-04-06T06:23:16.327Z,514.00
2023-04-06T06:24:16.379Z,502.00
2023-04-06T06:25:16.468Z,502.00
2023-04-06T06:26:16.546Z,505.00
2023-04-06T06:27:16.557Z,504.00
2023-04-06T06:28:16.696Z,513.00
2023-04-06T06:29:16.703Z,508.00
2023-04-06T06:30:16.784Z,512.00
2023-04-06T06:31:16.906Z,513.00
2023-04-06T06:32:16.870Z,510.00
2023-04-06T06:33:16.956Z,519.00
2023-04-06T06:34:17.025Z,509.00
2023-04-06T06:35:17.318Z,515.00
2023-04-06T06:36:17.159Z,511.00
2023-04-06T06:37:17.247Z,508.00
2023-04-06T06:38:17.316Z,509.00
2023-04-06T06:39:17.304Z,517.00
2023-04-06T06:40:17.396Z,515.00
2023-04-06T06:41:17.424Z,510.00
2023-04-06T06:42:17.481Z,515.00
2023-04-06T06:43:17.594Z,514.00
2023-04-06T06:44:17.672Z,517.00
2023-04-06T06:45:17.713Z,510.00
2023-04-06T06:46:17.799Z,510.00
2023-04-06T06:47:17.810Z,513.00
2023-04-06T06:48:17.858Z,519.00
2023-04-06T06:49:17.936Z,510.00
2023-04-06T06:50:18.051Z,515.00
2023-04-06T06:51:18.033Z,513.00
2023-04-06T06:52:18.083Z,503.00
2023-04-06T06:53:18.161Z,503.00
2023-04-06T06:54:18.470Z,513.00
2023-04-06T06:55:18.249Z,507.00
2023-04-06T06:56:18.408Z,506.00
2023-04-06T06:57:18.362Z,507.00
2023-04-06T06:58:18.409Z,504.00
2023-04-06T06:59:18.502Z,508.00
2023-04-06T07:00:18.589Z,503.00
2023-04-06T07:01:18.713Z,508.00
2023-04-06T07:02:18.676Z,505.00
2023-04-06T07:03:18.715Z,506.00
2023-04-06T07:04:18.732Z,502.00
2023-04-06T07:05:27.570Z,500.00
2023-04-06T07:06:19.812Z,500.00
2023-04-06T07:07:18.763Z,500.00
2023-04-06T07:08:18.791Z,500.00
2023-04-06T07:09:18.787Z,504.00
2023-04-06T07:10:18.762Z,504.00
2023-04-06T07:11:18.768Z,500.00
2023-04-06T07:12:18.735Z,500.00
2023-04-06T07:13:18.758Z,504.00
2023-04-06T07:14:18.738Z,500.00
2023-04-06T07:15:18.754Z,500.00
2023-04-06T07:16:18.970Z,507.00
2023-04-06T07:17:18.794Z,515.00
2023-04-06T07:18:18.893Z,513.00
2023-04-06T07:19:18.901Z,504.00
2023-04-06T07:20:18.965Z,511.00
2023-04-06T07:21:19.014Z,502.00
2023-04-06T07:22:19.027Z,500.00
2023-04-06T07:23:19.061Z,509.00
2023-04-06T07:24:19.156Z,504.00
2023-04-06T07:25:19.245Z,506.00
2023-04-06T07:26:19.198Z,513.00
2023-04-06T07:27:19.253Z,514.00
2023-04-06T07:28:19.317Z,502.00
2023-04-06T07:29:19.360Z,510.00
2023-04-06T07:30:19.366Z,510.00
2023-04-06T07:31:19.503Z,508.00
2023-04-06T07:32:19.578Z,503.00
2023-04-06T07:33:19.582Z,502.00
2023-04-06T07:34:19.554Z,501.00
2023-04-06T07:35:19.660Z,509.00
2023-04-06T07:36:19.773Z,516.00
2023-04-06T07:37:19.717Z,510.00
2023-04-06T07:38:19.713Z,506.00
2023-04-06T07:39:19.791Z,507.00
2023-04-06T07:40:19.827Z,511.00
2023-04-06T07:41:19.870Z,530.00
2023-04-06T07:42:19.882Z,519.00
2023-04-06T07:43:19.946Z,507.00
2023-04-06T07:44:20.000Z,510.00
2023-04-06T07:45:20.001Z,509.00
2023-04-06T07:46:20.180Z,517.00
2023-04-06T07:47:20.138Z,527.00
2023-04-06T07:48:20.195Z,525.00
2023-04-06T07:49:20.196Z,518.00
2023-04-06T07:50:20.230Z,517.00
2023-04-06T07:51:20.267Z,515.00
2023-04-06T07:52:20.314Z,517.00
2023-04-06T07:53:20.395Z,515.00
2023-04-06T07:54:20.397Z,519.00
2023-04-06T07:55:20.442Z,516.00
2023-04-06T07:56:20.529Z,515.00
2023-04-06T07:57:20.560Z,521.00
2023-04-06T07:58:20.592Z,520.00
2023-04-06T07:59:20.670Z,524.00
2023-04-06T08:00:20.674Z,507.00
2023-04-06T08:01:20.780Z,514.00
2023-04-06T08:02:20.808Z,520.00
2023-04-06T08:03:20.894Z,538.00
2023-04-06T08:04:20.904Z,545.00
2023-04-06T08:05:20.869Z,554.00
2023-04-06T08:06:20.922Z,554.00
2023-04-06T08:07:20.920Z,556.00
2023-04-06T08:08:20.973Z,556.00
2023-04-06T08:09:20.987Z,561.00
2023-04-06T08:10:21.026Z,554.00
2023-04-06T08:11:21.059Z,551.00
2023-04-06T08:12:21.068Z,559.00
2023-04-06T08:13:21.082Z,564.00
2023-04-06T08:14:21.123Z,569.00
2023-04-06T08:15:21.107Z,570.00
2023-04-06T08:16:21.223Z,574.00
2023-04-06T08:17:21.173Z,574.00
2023-04-06T08:18:21.221Z,573.00
2023-04-06T08:19:21.201Z,571.00
2023-04-06T08:20:21.207Z,573.00
2023-04-06T08:21:21.255Z,577.00
2023-04-06T08:22:21.302Z,574.00
2023-04-06T08:23:21.271Z,582.00
2023-04-06T08:24:21.277Z,583.00
2023-04-06T08:25:21.282Z,581.00
2023-04-06T08:26:21.296Z,581.00
2023-04-06T08:27:21.318Z,584.00
2023-04-06T08:28:21.387Z,587.00
2023-04-06T08:29:21.349Z,586.00
2023-04-06T08:30:21.436Z,585.00
2023-04-06T08:31:21.405Z,588.00
2023-04-06T08:32:21.420Z,589.00
2023-04-06T08:33:21.417Z,584.00
2023-04-06T08:34:21.431Z,593.00
2023-04-06T08:35:21.478Z,588.00
2023-04-06T08:36:21.529Z,588.00
2023-04-06T08:37:21.452Z,592.00
2023-04-06T08:38:21.473Z,591.00
2023-04-06T08:39:21.517Z,597.00
2023-04-06T08:40:21.587Z,595.00
2023-04-06T08:41:21.539Z,595.00
2023-04-06T08:42:21.529Z,595.00
2023-04-06T08:43:21.595Z,593.00
2023-04-06T08:44:21.546Z,594.00
2023-04-06T08:45:21.599Z,595.00
2023-04-06T08:46:21.599Z,602.00
2023-04-06T08:47:24.545Z,595.00
2023-04-06T08:48:21.596Z,607.00
2023-04-06T08:49:21.586Z,603.00
2023-04-06T08:50:21.678Z,603.00
2023-04-06T08:51:21.560Z,604.00
2023-04-06T08:52:21.567Z,602.00
2023-04-06T08:53:24.074Z,604.00
2023-04-06T08:54:21.559Z,605.00
2023-04-06T08:55:21.596Z,605.00
2023-04-06T08:56:21.555Z,605.00
2023-04-06T08:57:21.542Z,604.00
2023-04-06T08:58:35.189Z,604.00
2023-04-06T08:59:22.552Z,605.00
2023-04-06T09:00:21.518Z,605.00
2023-04-06T09:01:21.547Z,607.00
2023-04-06T09:02:21.610Z,608.00
2023-04-06T09:03:21.623Z,607.00
2023-04-06T09:04:21.668Z,611.00
2023-04-06T09:05:21.457Z,609.00
2023-04-06T09:06:21.460Z,610.00
2023-04-06T09:07:21.469Z,614.00
2023-04-06T09:08:21.444Z,610.00
2023-04-06T09:09:24.201Z,612.00
2023-04-06T09:10:21.452Z,616.00
2023-04-06T09:11:21.457Z,614.00
2023-04-06T09:12:21.443Z,616.00
2023-04-06T09:13:21.432Z,615.00
2023-04-06T09:14:21.456Z,612.00
2023-04-06T09:15:24.177Z,613.00
2023-04-06T09:16:21.452Z,613.00
2023-04-06T09:17:21.407Z,613.00
2023-04-06T09:18:21.389Z,614.00
2023-04-06T09:19:21.378Z,613.00
2023-04-06T09:20:21.355Z,616.00
2023-04-06T09:21:23.812Z,620.00
2023-04-06T09:22:21.356Z,621.00
2023-04-06T09:23:21.366Z,619.00
2023-04-06T09:24:21.334Z,617.00
2023-04-06T09:25:21.357Z,618.00
2023-04-06T09:26:21.353Z,617.00
2023-04-06T09:27:21.399Z,618.00
2023-04-06T09:28:21.316Z,621.00
2023-04-06T09:29:21.308Z,619.00
2023-04-06T09:30:21.325Z,619.00
2023-04-06T09:31:21.350Z,618.00
2023-04-06T09:32:21.342Z,618.00
2023-04-06T09:33:21.258Z,620.00
2023-04-06T09:34:21.280Z,619.00
2023-04-06T09:35:21.325Z,622.00
2023-04-06T09:36:21.288Z,621.00
2023-04-06T09:37:21.248Z,625.00
2023-04-06T09:38:21.273Z,618.00
2023-04-06T09:39:21.234Z,626.00
2023-04-06T09:40:21.262Z,625.00
2023-04-06T09:41:21.238Z,619.00
2023-04-06T09:42:21.228Z,621.00
2023-04-06T09:43:21.217Z,622.00
2023-04-06T09:44:21.249Z,623.00
2023-04-06T09:45:21.226Z,627.00
2023-04-06T09:46:21.269Z,628.00
2023-04-06T09:47:21.234Z,627.00
2023-04-06T09:48:21.256Z,622.00
2023-04-06T09:49:21.199Z,620.00
2023-04-06T09:50:21.232Z,627.00
2023-04-06T09:51:21.174Z,627.00
2023-04-06T09:52:21.146Z,627.00
2023-04-06T09:53:21.150Z,628.00
2023-04-06T09:54:21.132Z,626.00
2023-04-06T09:55:21.194Z,627.00
2023-04-06T09:56:21.136Z,627.00
2023-04-06T09:57:21.130Z,626.00
2023-04-06T09:58:21.161Z,627.00
2023-04-06T09:59:21.147Z,630.00
2023-04-06T10:00:21.128Z,627.00
2023-04-06T10:01:21.128Z,624.00
2023-04-06T10:02:21.127Z,628.00
2023-04-06T10:03:21.244Z,626.00
2023-04-06T10:04:21.102Z,628.00
2023-04-06T10:05:21.106Z,631.00
2023-04-06T10:06:21.091Z,629.00
2023-04-06T10:07:21.065Z,629.00
2023-04-06T10:08:21.062Z,630.00
2023-04-06T10:09:21.060Z,627.00
2023-04-06T10:10:21.037Z,625.00
2023-04-06T10:11:21.040Z,620.00
2023-04-06T10:12:21.030Z,624.00
2023-04-06T10:13:21.015Z,623.00
2023-04-06T10:14:21.026Z,621.00
2023-04-06T10:15:22.983Z,622.00
2023-04-06T10:16:21.042Z,625.00
2023-04-06T10:17:21.030Z,619.00
2023-04-06T10:18:20.968Z,623.00
2023-04-06T10:19:20.999Z,621.00
2023-04-06T10:20:20.973Z,618.00
2023-04-06T10:21:21.915Z,616.00
2023-04-06T10:22:20.971Z,617.00
2023-04-06T10:23:20.953Z,618.00
2023-04-06T10:24:20.964Z,624.00
2023-04-06T10:25:20.955Z,615.00
2023-04-06T10:26:20.991Z,618.00
2023-04-06T10:27:21.025Z,620.00
2023-04-06T10:28:21.059Z,616.00
2023-04-06T10:29:21.108Z,622.00
2023-04-06T10:30:21.159Z,621.00
2023-04-06T10:31:21.148Z,619.00
2023-04-06T10:32:21.211Z,617.00
2023-04-06T10:33:21.255Z,622.00
2023-04-06T10:34:21.173Z,623.00
2023-04-06T10:35:21.215Z,621.00
2023-04-06T10:36:21.244Z,624.00
2023-04-06T10:37:21.288Z,622.00
2023-04-06T10:38:21.319Z,624.00
2023-04-06T10:39:21.331Z,626.00
2023-04-06T10:40:21.350Z,617.00
2023-04-06T10:41:21.379Z,624.00
2023-04-06T10:42:21.405Z,623.00
2023-04-06T10:43:21.477Z,623.00
2023-04-06T10:44:21.473Z,631.00
2023-04-06T10:45:21.519Z,621.00
2023-04-06T10:46:21.580Z,624.00
2023-04-06T10:47:21.641Z,623.00
2023-04-06T10:48:21.621Z,618.00
2023-04-06T10:49:21.732Z,623.00
2023-04-06T10:50:21.733Z,621.00
2023-04-06T10:51:21.782Z,622.00
2023-04-06T10:52:21.821Z,626.00
2023-04-06T10:53:21.850Z,622.00
2023-04-06T10:54:21.881Z,620.00
2023-04-06T10:55:21.975Z,623.00
2023-04-06T10:56:22.055Z,621.00
2023-04-06T10:57:22.135Z,625.00
2023-04-06T10:58:22.133Z,624.00
2023-04-06T10:59:22.312Z,627.00
2023-04-06T11:00:22.268Z,626.00
2023-04-06T11:01:22.418Z,625.00
2023-04-06T11:02:22.369Z,626.00
2023-04-06T11:03:22.464Z,625.00
2023-04-06T11:04:22.519Z,627.00
2023-04-06T11:05:22.546Z,626.00
2023-04-06T11:06:22.610Z,624.00
2023-04-06T11:07:22.680Z,622.00
2023-04-06T11:08:22.716Z,624.00
2023-04-06T11:09:22.801Z,624.00
2023-04-06T11:10:22.864Z,628.00
2023-04-06T11:11:22.907Z,620.00
2023-04-06T11:12:22.947Z,625.00
2023-04-06T11:13:23.031Z,625.00
2023-04-06T11:14:23.112Z,627.00
2023-04-06T11:15:23.161Z,628.00
2023-04-06T11:16:23.344Z,627.00
2023-04-06T11:17:23.260Z,625.00
2023-04-06T11:18:23.328Z,631.00
2023-04-06T11:19:23.375Z,628.00
2023-04-06T11:20:23.418Z,632.00
2023-04-06T11:21:23.473Z,628.00
2023-04-06T11:22:23.523Z,625.00
2023-04-06T11:23:23.591Z,630.00
2023-04-06T11:24:23.662Z,630.00
2023-04-06T11:25:23.712Z,629.00
2023-04-06T11:26:23.781Z,632.00
2023-04-06T11:27:23.842Z,624.00
2023-04-06T11:28:23.878Z,629.00
2023-04-06T11:29:23.946Z,628.00
2023-04-06T11:30:24.013Z,632.00
2023-04-06T11:31:24.082Z,626.00
2023-04-06T11:32:24.142Z,625.00
2023-04-06T11:33:24.127Z,627.00
2023-04-06T11:34:24.201Z,628.00
2023-04-06T11:35:24.275Z,625.00
2023-04-06T11:36:24.479Z,620.00
2023-04-06T11:37:25.078Z,632.00
2023-04-06T11:38:24.424Z,628.00
2023-04-06T11:39:24.455Z,629.00
2023-04-06T11:40:24.516Z,628.00
2023-04-06T11:41:24.656Z,630.00
2023-04-06T11:42:24.634Z,629.00
2023-04-06T11:43:24.646Z,630.00
2023-04-06T11:44:24.735Z,631.00
2023-04-06T11:45:24.762Z,628.00
2023-04-06T11:46:24.861Z,635.00
2023-04-06T11:47:24.915Z,628.00
2023-04-06T11:48:26.357Z,629.00
2023-04-06T11:49:24.971Z,629.00
2023-04-06T11:50:25.013Z,635.00
2023-04-06T11:51:25.080Z,634.00
2023-04-06T11:52:25.107Z,635.00
2023-04-06T11:53:25.178Z,635.00
2023-04-06T11:54:25.213Z,634.00
2023-04-06T11:55:25.262Z,635.00
2023-04-06T11:56:25.361Z,637.00
2023-04-06T11:57:25.411Z,638.00
2023-04-06T11:58:25.393Z,636.00
2023-04-06T11:59:25.500Z,636.00
2023-04-06T12:00:25.502Z,631.00
2023-04-06T12:01:25.560Z,638.00
2023-04-06T12:02:25.693Z,640.00
2023-04-06T12:03:25.768Z,637.00
2023-04-06T12:04:25.733Z,639.00
2023-04-06T12:05:25.712Z,635.00
2023-04-06T12:06:25.773Z,636.00
2023-04-06T12:07:25.817Z,638.00
2023-04-06T12:08:25.849Z,628.00
2023-04-06T12:09:25.921Z,624.00
2023-04-06T12:10:25.977Z,619.00
2023-04-06T12:11:26.010Z,639.00
2023-04-06T12:12:26.048Z,624.00
2023-04-06T12:13:26.075Z,614.00
2023-04-06T12:14:26.098Z,588.00
2023-04-06T12:15:26.201Z,588.00
2023-04-06T12:16:26.373Z,585.00
2023-04-06T12:17:26.342Z,581.00
2023-04-06T12:18:26.293Z,560.00
2023-04-06T12:19:26.395Z,539.00
2023-04-06T12:20:27.428Z,544.00
2023-04-06T12:21:26.471Z,532.00
2023-04-06T12:22:26.526Z,538.00
2023-04-06T12:23:26.560Z,521.00
2023-04-06T12:24:26.623Z,491.00
2023-04-06T12:25:26.644Z,500.00
2023-04-06T12:26:26.695Z,518.00
2023-04-06T12:27:26.769Z,515.00
2023-04-06T12:28:26.778Z,534.00
2023-04-06T12:29:26.876Z,535.00
2023-04-06T12:30:26.893Z,554.00
2023-04-06T12:31:27.006Z,513.00
2023-04-06T12:32:27.060Z,506.00
2023-04-06T12:33:27.131Z,513.00
2023-04-06T12:34:27.090Z,509.00
2023-04-06T12:35:27.158Z,513.00
2023-04-06T12:36:27.308Z,504.00
2023-04-06T12:37:27.270Z,524.00
2023-04-06T12:38:27.327Z,514.00
2023-04-06T12:39:27.408Z,532.00
2023-04-06T12:40:27.383Z,543.00
2023-04-06T12:41:27.445Z,585.00
2023-04-06T12:42:27.452Z,549.00
2023-04-06T12:43:27.509Z,568.00
2023-04-06T12:44:27.596Z,520.00
2023-04-06T12:45:27.596Z,556.00
2023-04-06T12:46:27.663Z,572.00
2023-04-06T12:47:27.778Z,577.00
2023-04-06T12:48:27.732Z,577.00
2023-04-06T12:49:27.774Z,536.00
2023-04-06T12:50:27.816Z,573.00
2023-04-06T12:51:27.916Z,568.00
2023-04-06T12:52:27.925Z,514.00
2023-04-06T12:53:27.952Z,553.00
2023-04-06T12:54:27.972Z,584.00
2023-04-06T12:55:28.002Z,605.00
2023-04-06T12:56:28.144Z,555.00
2023-04-06T12:57:28.091Z,566.00
2023-04-06T12:58:28.151Z,565.00
2023-04-06T12:59:28.289Z,560.00
2023-04-06T13:00:28.299Z,548.00
2023-04-06T13:01:28.262Z,595.00
2023-04-06T13:02:28.380Z,555.00
2023-04-06T13:03:28.320Z,557.00
2023-04-06T13:04:28.297Z,577.00
2023-04-06T13:05:29.544Z,533.00
2023-04-06T13:06:28.527Z,525.00
2023-04-06T13:07:29.183Z,517.00
2023-04-06T13:08:28.419Z,585.00
2023-04-06T13:09:28.445Z,489.00
2023-04-06T13:10:28.441Z,579.00
2023-04-06T13:11:28.906Z,500.00
2023-04-06T13:12:28.488Z,584.00
2023-04-06T13:13:28.532Z,645.00
2023-04-06T13:14:28.549Z,529.00
2023-04-06T13:15:28.551Z,637.00
2023-04-06T13:16:28.766Z,503.00
2023-04-06T13:17:28.667Z,638.00
2023-04-06T13:18:28.662Z,720.00
2023-04-06T13:19:28.676Z,661.00
2023-04-06T13:20:28.691Z,649.00
2023-04-06T13:21:28.699Z,615.00
2023-04-06T13:22:28.716Z,763.00
2023-04-06T13:23:28.752Z,636.00
2023-04-06T13:24:28.783Z,654.00
2023-04-06T13:25:28.804Z,526.00
2023-04-06T13:26:28.793Z,624.00
2023-04-06T13:27:28.898Z,582.00
2023-04-06T13:28:28.905Z,596.00
2023-04-06T13:29:28.897Z,627.00
2023-04-06T13:30:28.897Z,600.00
2023-04-06T13:31:29.006Z,553.00
2023-04-06T13:32:29.009Z,597.00
2023-04-06T13:33:28.973Z,613.00
2023-04-06T13:34:28.965Z,554.00
2023-04-06T13:35:28.983Z,648.00
2023-04-06T13:36:29.082Z,575.00
2023-04-06T13:37:29.028Z,740.00
2023-04-06T13:38:29.049Z,535.00
2023-04-06T13:39:29.081Z,659.00
2023-04-06T13:40:29.051Z,583.00
2023-04-06T13:41:29.076Z,642.00
2023-04-06T13:42:29.103Z,530.00
2023-04-06T13:43:29.092Z,527.00
2023-04-06T13:44:29.143Z,634.00
2023-04-06T13:45:29.217Z,609.00
2023-04-06T13:46:29.125Z,753.00
2023-04-06T13:47:29.189Z,624.00
2023-04-06T13:48:29.164Z,620.00
2023-04-06T13:49:29.180Z,564.00
2023-04-06T13:50:29.195Z,744.00
2023-04-06T13:51:29.191Z,585.00
2023-04-06T13:52:29.260Z,649.00
2023-04-06T13:53:29.254Z,597.00
2023-04-06T13:54:29.242Z,603.00
2023-04-06T13:55:29.247Z,593.00
2023-04-06T13:56:29.416Z,613.00
2023-04-06T13:57:29.390Z,707.00
2023-04-06T13:58:29.357Z,758.00
2023-04-06T14:00:29.382Z,675.00
2023-04-06T14:01:29.435Z,751.00
2023-04-06T14:02:29.656Z,778.00
2023-04-06T14:03:29.543Z,663.00
2023-04-06T14:04:29.462Z,632.00
2023-04-06T14:05:29.500Z,693.00
2023-04-06T14:06:31.730Z,619.00
2023-04-06T14:07:29.653Z,673.00
2023-04-06T14:08:29.684Z,591.00
2023-04-06T14:09:29.651Z,555.00
2023-04-06T14:10:29.687Z,627.00
2023-04-06T14:11:29.746Z,601.00
2023-04-06T14:12:29.712Z,605.00
2023-04-06T14:13:29.742Z,672.00
2023-04-06T14:14:29.757Z,669.00
2023-04-06T14:15:29.754Z,662.00
2023-04-06T14:16:29.854Z,695.00
2023-04-06T14:17:29.798Z,661.00
2023-04-06T14:18:29.802Z,780.00
2023-04-06T14:19:29.797Z,865.00
2023-04-06T14:20:31.475Z,806.00
2023-04-06T14:21:29.828Z,821.00
2023-04-06T14:23:29.812Z,914.00
2023-04-06T14:24:29.829Z,862.00
2023-04-06T14:25:29.842Z,975.00
2023-04-06T14:26:29.837Z,958.00
2023-04-06T14:27:29.852Z,924.00
2023-04-06T14:28:29.814Z,933.00
2023-04-06T14:29:29.847Z,927.00
2023-04-06T14:30:29.857Z,978.00
2023-04-06T14:31:29.818Z,928.00
2023-04-06T14:32:29.859Z,930.00
2023-04-06T14:33:29.849Z,979.00
2023-04-06T14:34:29.812Z,999.00
2023-04-06T14:35:29.868Z,1004.00
2023-04-06T14:36:29.896Z,1043.00
2023-04-06T14:37:29.867Z,1017.00
2023-04-06T14:38:29.837Z,1032.00
2023-04-06T14:39:29.865Z,1041.00
2023-04-06T14:40:29.885Z,1057.00
2023-04-06T14:41:29.870Z,1059.00
2023-04-06T14:42:29.879Z,1021.00
2023-04-06T14:43:29.889Z,1004.00
2023-04-06T14:44:29.884Z,1073.00
2023-04-06T14:45:29.880Z,1078.00
2023-04-06T14:46:29.923Z,1062.00
2023-04-06T14:47:29.940Z,1056.00
2023-04-06T14:48:29.887Z,1011.00
2023-04-06T14:49:29.879Z,1041.00
2023-04-06T14:50:29.891Z,1036.00
2023-04-06T14:51:29.881Z,981.00
2023-04-06T14:52:31.976Z,1000.00
2023-04-06T14:53:29.895Z,1104.00
2023-04-06T14:54:29.860Z,1172.00
2023-04-06T14:55:29.860Z,1186.00
2023-04-06T14:56:29.820Z,1197.00
2023-04-06T14:57:29.860Z,1182.00
2023-04-06T14:58:29.842Z,1193.00
2023-04-06T15:00:29.854Z,1197.00
2023-04-06T15:01:29.913Z,1205.00
2023-04-06T15:02:29.963Z,1199.00
2023-04-06T15:03:29.848Z,1189.00
2023-04-06T15:04:29.966Z,1163.00
2023-04-06T15:05:29.798Z,1157.00
2023-04-06T15:06:29.767Z,1141.00
2023-04-06T15:07:29.782Z,1127.00
2023-04-06T15:08:29.756Z,1187.00
2023-04-06T15:09:29.726Z,1215.00
2023-04-06T15:10:29.755Z,1211.00
2023-04-06T15:11:29.763Z,1236.00
2023-04-06T15:12:29.750Z,1227.00
2023-04-06T15:13:29.726Z,1210.00
2023-04-06T15:14:29.695Z,1220.00
2023-04-06T15:15:29.706Z,1200.00
2023-04-06T15:16:29.817Z,1183.00
2023-04-06T15:17:29.712Z,1168.00
2023-04-06T15:18:29.668Z,1192.00
2023-04-06T15:19:29.735Z,1204.00
2023-04-06T15:20:29.675Z,1195.00
2023-04-06T15:21:29.661Z,1201.00
2023-04-06T15:22:29.661Z,1257.00
2023-04-06T15:23:29.631Z,1253.00
2023-04-06T15:24:29.654Z,1232.00
2023-04-06T15:25:29.621Z,1251.00
2023-04-06T15:26:29.659Z,1269.00
2023-04-06T15:27:29.656Z,1260.00
2023-04-06T15:28:29.621Z,1258.00
2023-04-06T15:29:29.606Z,1248.00
2023-04-06T15:30:29.619Z,1228.00
2023-04-06T15:31:37.757Z,1235.00
2023-04-06T15:32:30.674Z,1236.00
2023-04-06T15:33:29.565Z,1240.00
2023-04-06T15:34:29.605Z,1250.00
2023-04-06T15:35:29.660Z,1255.00
2023-04-06T15:36:29.568Z,1263.00
2023-04-06T15:37:29.525Z,1244.00
2023-04-06T15:38:29.536Z,1239.00
2023-04-06T15:39:29.553Z,1238.00
2023-04-06T15:40:29.511Z,1274.00
2023-04-06T15:41:29.512Z,1230.00
2023-04-06T15:42:29.567Z,1259.00
2023-04-06T15:43:29.516Z,1266.00
2023-04-06T15:44:29.517Z,1240.00
2023-04-06T15:45:29.489Z,1277.00
2023-04-06T15:46:29.489Z,1247.00
2023-04-06T15:47:29.482Z,1279.00
2023-04-06T15:48:29.447Z,1234.00
2023-04-06T15:49:29.471Z,1270.00
2023-04-06T15:50:29.460Z,1278.00
2023-04-06T15:51:29.420Z,1244.00
2023-04-06T15:52:29.436Z,1230.00
2023-04-06T15:53:29.417Z,1254.00
2023-04-06T15:54:29.433Z,1226.00
2023-04-06T15:55:29.481Z,1242.00
2023-04-06T15:56:29.555Z,1252.00
2023-04-06T15:57:29.501Z,1254.00
2023-04-06T15:58:29.512Z,1246.00
2023-04-06T15:59:29.546Z,1232.00
2023-04-06T16:00:29.551Z,1241.00
2023-04-06T16:01:29.646Z,1232.00
2023-04-06T16:02:29.693Z,1217.00
2023-04-06T16:03:29.635Z,1254.00
2023-04-06T16:04:29.744Z,1238.00
2023-04-06T16:05:30.485Z,1222.00
2023-04-06T16:06:29.693Z,1250.00
2023-04-06T16:07:29.714Z,1245.00
2023-04-06T16:08:29.745Z,1240.00
2023-04-06T16:09:29.762Z,1252.00
2023-04-06T16:10:29.782Z,1201.00
2023-04-06T16:11:29.789Z,1229.00
2023-04-06T16:12:29.801Z,1224.00
2023-04-06T16:13:29.873Z,1220.00
2023-04-06T16:14:29.894Z,1233.00
2023-04-06T16:15:29.889Z,1226.00
2023-04-06T16:16:30.059Z,1209.00
2023-04-06T16:17:30.045Z,1184.00
2023-04-06T16:18:29.996Z,1218.00
2023-04-06T16:19:30.026Z,1186.00
2023-04-06T16:20:30.031Z,1211.00
2023-04-06T16:21:30.082Z,1158.00
2023-04-06T16:22:30.116Z,1225.00
2023-04-06T16:23:30.132Z,1178.00
2023-04-06T16:24:30.148Z,1210.00
2023-04-06T16:25:30.205Z,1222.00
2023-04-06T16:26:30.258Z,1170.00
2023-04-06T16:27:30.254Z,1176.00
2023-04-06T16:28:30.330Z,1189.00
2023-04-06T16:29:30.303Z,1198.00
2023-04-06T16:30:30.359Z,1211.00
2023-04-06T16:31:30.492Z,1197.00
2023-04-06T16:32:30.420Z,1166.00
2023-04-06T16:33:30.471Z,1185.00
2023-04-06T16:34:30.477Z,1196.00
2023-04-06T16:35:30.576Z,1148.00
2023-04-06T16:36:30.675Z,1212.00
2023-04-06T16:37:30.597Z,1200.00
2023-04-06T16:38:30.631Z,1186.00
2023-04-06T16:39:30.657Z,1185.00
2023-04-06T16:40:30.686Z,1169.00
2023-04-06T16:41:30.773Z,1142.00
2023-04-06T16:42:30.791Z,1143.00
2023-04-06T16:43:30.822Z,1163.00
2023-04-06T16:44:30.819Z,1155.00
2023-04-06T16:45:30.913Z,1148.00
2023-04-06T16:46:30.896Z,1140.00
2023-04-06T16:47:30.961Z,1139.00
2023-04-06T16:48:30.949Z,1161.00
2023-04-06T16:49:30.968Z,1165.00
2023-04-06T16:50:31.028Z,1170.00
2023-04-06T16:51:31.070Z,1159.00
2023-04-06T16:52:31.086Z,1141.00
2023-04-06T16:53:31.113Z,1143.00
2023-04-06T16:54:31.174Z,1134.00
2023-04-06T16:55:31.197Z,1165.00
2023-04-06T16:56:31.449Z,1160.00
2023-04-06T16:57:31.252Z,1136.00
2023-04-06T16:58:31.306Z,1120.00
2023-04-06T16:59:31.349Z,1128.00
2023-04-06T17:00:31.348Z,1099.00
